createdAt,value
2022-08-31T03:27:01.102Z,0.1
2022-08-31T03:29:01.127Z,0.2
2022-08-31T03:30:01.105Z,0.3
2022-08-31T03:32:01.170Z,0.4
2022-08-31T03:33:12.223Z,0.5
2022-08-31T03:35:01.099Z,0.7
2022-08-31T03:36:01.109Z,0.8
2022-08-31T03:37:01.100Z,1.0
2022-08-31T03:38:03.355Z,1.2
2022-08-31T03:39:02.134Z,1.4
2022-08-31T03:40:01.152Z,1.7
2022-08-31T03:41:01.106Z,1.9
2022-08-31T03:42:01.103Z,2.2
2022-08-31T03:43:02.347Z,2.5
2022-08-31T03:44:01.107Z,2.7
2022-08-31T03:45:01.123Z,3.2
2022-08-31T03:46:01.131Z,3.7
2022-08-31T03:47:01.127Z,4.4
2022-08-31T03:48:01.351Z,5.1
2022-08-31T03:49:01.128Z,5.9
2022-08-31T03:50:01.120Z,7.0
2022-08-31T03:51:01.122Z,8.1
2022-08-31T03:52:01.113Z,9.9
2022-08-31T03:53:01.775Z,11.6
2022-08-31T03:54:01.147Z,13.3
2022-08-31T03:55:01.116Z,16.0
2022-08-31T03:56:01.112Z,18.7
2022-08-31T03:57:01.127Z,22.9
2022-08-31T03:58:02.356Z,27.1
2022-08-31T03:59:01.181Z,31.3
2022-08-31T04:00:01.119Z,37.6
2022-08-31T04:01:01.108Z,43.9
2022-08-31T04:02:01.143Z,53.3
2022-08-31T04:03:01.364Z,62.7
2022-08-31T04:04:01.144Z,72.1
2022-08-31T04:05:01.111Z,85.7
2022-08-31T04:06:01.113Z,99.3
2022-08-31T04:07:01.119Z,118.6
2022-08-31T04:08:02.684Z,137.9
2022-08-31T04:09:01.158Z,157.1
2022-08-31T04:10:01.182Z,183.8
2022-08-31T04:12:01.162Z,221.5
2022-08-31T04:13:03.287Z,257.5
2022-08-31T04:14:01.246Z,293.6
2022-08-31T04:15:01.098Z,344.0
2022-08-31T04:16:01.208Z,392.1
2022-08-31T04:17:01.165Z,457.7
2022-08-31T04:18:01.946Z,520.1
2022-08-31T04:19:01.137Z,582.4
2022-08-31T04:20:01.220Z,666.2
2022-08-31T04:21:01.109Z,745.3
2022-08-31T04:22:01.100Z,848.6
2022-08-31T04:23:01.898Z,945.5
2022-08-31T04:24:01.634Z,1042.5
2022-08-31T04:25:01.107Z,1166.4
2022-08-31T04:26:01.125Z,1281.9
2022-08-31T04:27:01.106Z,1416.9
2022-08-31T04:28:01.318Z,1551.9
2022-08-31T04:29:01.142Z,1686.9
2022-08-31T04:30:01.106Z,1841.1
2022-08-31T04:31:01.162Z,1995.3
2022-08-31T04:32:01.105Z,2168.1
2022-08-31T04:33:01.741Z,2340.9
2022-08-31T04:34:01.422Z,2513.7
2022-08-31T04:35:01.101Z,2706.3
2022-08-31T04:36:01.109Z,2898.9
2022-08-31T04:37:01.106Z,3119.1
2022-08-31T04:38:02.351Z,3339.2
2022-08-31T04:39:01.138Z,3559.3
2022-08-31T04:40:01.198Z,3801.9
2022-08-31T04:41:01.128Z,4044.5
2022-08-31T04:42:01.312Z,4309.0
2022-08-31T04:43:01.346Z,4573.5
2022-08-31T04:44:01.140Z,4837.9
2022-08-31T04:45:01.113Z,5126.1
2022-08-31T04:46:04.368Z,5414.2
2022-08-31T04:47:01.127Z,5707.9
2022-08-31T04:48:01.741Z,6001.5
2022-08-31T04:49:01.114Z,6295.2
2022-08-31T04:50:01.175Z,6562.7
2022-08-31T04:51:01.108Z,6830.3
2022-08-31T04:52:01.114Z,7105.4
2022-08-31T04:53:03.589Z,7380.5
2022-08-31T04:54:01.113Z,7655.7
2022-08-31T04:55:01.111Z,7954.9
2022-08-31T04:56:01.139Z,8254.1
2022-08-31T04:57:01.116Z,8559.5
2022-08-31T04:58:06.962Z,8864.9
2022-08-31T04:59:01.193Z,9170.3
2022-08-31T05:00:01.197Z,9501.9
2022-08-31T05:01:01.149Z,9833.6
2022-08-31T05:02:01.203Z,10226.9
2022-08-31T05:03:01.348Z,10620.1
2022-08-31T05:04:01.158Z,11013.4
2022-08-31T05:05:01.109Z,11461.7
2022-08-31T05:06:01.115Z,11909.9
2022-08-31T05:07:01.115Z,12415.7
2022-08-31T05:08:02.226Z,12921.5
2022-08-31T05:09:01.154Z,13427.3
2022-08-31T05:10:01.116Z,13946.1
2022-08-31T05:12:01.225Z,14574.2
2022-08-31T05:13:01.837Z,15143.7
2022-08-31T05:14:01.143Z,15713.3
2022-08-31T05:15:01.097Z,16503.1
2022-08-31T05:16:01.241Z,17209.4
2022-08-31T05:17:01.102Z,17716.8
2022-08-31T05:18:01.809Z,18120.9
2022-08-31T05:19:01.134Z,18524.9
2022-08-31T05:20:01.104Z,18901.9
2022-08-31T05:21:01.103Z,19208.7
2022-08-31T05:22:01.104Z,19504.7
2022-08-31T05:23:06.800Z,19684.0
2022-08-31T05:24:01.352Z,19863.3
2022-08-31T05:25:01.102Z,20062.4
2022-08-31T05:26:01.101Z,20175.0
2022-08-31T05:27:01.107Z,20202.2
2022-08-31T05:28:02.765Z,20229.4
2022-08-31T05:29:01.140Z,20256.6
2022-08-31T05:30:01.107Z,20071.4
2022-08-31T05:31:01.198Z,19886.2
2022-08-31T05:32:01.102Z,19965.7
2022-08-31T05:33:01.819Z,20045.3
2022-08-31T05:34:01.150Z,20124.8
2022-08-31T05:35:01.104Z,20264.6
2022-08-31T05:36:01.104Z,20404.4
2022-08-31T05:37:01.107Z,20588.1
2022-08-31T05:38:01.815Z,20771.9
2022-08-31T05:39:01.573Z,20955.6
2022-08-31T05:40:01.117Z,21153.1
2022-08-31T05:41:06.131Z,21350.5
2022-08-31T05:42:01.105Z,21561.1
2022-08-31T05:43:02.199Z,21771.7
2022-08-31T05:44:01.183Z,21982.3
2022-08-31T05:45:01.170Z,22223.7
2022-08-31T05:46:01.190Z,22465.0
2022-08-31T05:47:03.697Z,22668.1
2022-08-31T05:48:02.122Z,22871.1
2022-08-31T05:49:01.153Z,23074.2
2022-08-31T05:50:01.108Z,23276.3
2022-08-31T05:51:01.111Z,23478.5
2022-08-31T05:52:01.116Z,23681.9
2022-08-31T05:53:01.755Z,23885.4
2022-08-31T05:54:01.192Z,24088.9
2022-08-31T05:55:01.126Z,24292.8
2022-08-31T05:56:01.111Z,24496.7
2022-08-31T05:57:01.587Z,24700.4
2022-08-31T05:58:01.753Z,24904.1
2022-08-31T05:59:01.147Z,25107.7
2022-08-31T06:00:01.119Z,25313.7
2022-08-31T06:01:01.113Z,25519.6
2022-08-31T06:02:01.188Z,25737.9
2022-08-31T06:04:01.253Z,25956.3
2022-08-31T06:05:01.148Z,26210.6
2022-08-31T06:06:01.098Z,26432.7
2022-08-31T06:07:01.102Z,26685.6
2022-08-31T06:08:01.538Z,26903.9
2022-08-31T06:09:16.162Z,27122.3
2022-08-31T06:10:01.309Z,27370.5
2022-08-31T06:11:01.091Z,27584.6
2022-08-31T06:12:01.105Z,27841.5
2022-08-31T06:13:03.021Z,28061.6
2022-08-31T06:14:01.174Z,28281.7
2022-08-31T06:15:05.969Z,28542.2
2022-08-31T06:16:01.204Z,28761.8
2022-08-31T06:17:02.210Z,29494.4
2022-08-31T06:18:02.248Z,30187.1
2022-08-31T06:19:01.107Z,30879.7
2022-08-31T06:20:06.335Z,32204.3
2022-08-31T06:21:01.108Z,33528.8
2022-08-31T06:22:01.135Z,34703.3
2022-08-31T06:23:04.171Z,35877.9
2022-08-31T06:24:02.138Z,37052.4
2022-08-31T06:25:01.316Z,38323.8
2022-08-31T06:26:01.370Z,39595.2
2022-08-31T06:27:01.111Z,41258.1
2022-08-31T06:28:02.572Z,42920.9
2022-08-31T06:29:01.121Z,44583.8
2022-08-31T06:30:03.703Z,46238.6
2022-08-31T06:31:01.192Z,47893.4
2022-08-31T06:32:01.116Z,49139.6
2022-08-31T06:33:04.770Z,50385.8
2022-08-31T06:34:01.129Z,51632.0
2022-08-31T06:35:02.650Z,52316.5
2022-08-31T06:36:06.139Z,53001.1
2022-08-31T06:37:01.117Z,53923.5
2022-08-31T06:38:01.544Z,54845.9
2022-08-31T06:39:01.117Z,55768.3
2022-08-31T06:40:01.379Z,56698.3
2022-08-31T06:41:01.165Z,57628.4
2022-08-31T06:42:01.136Z,58257.8
2022-08-31T06:43:01.547Z,58887.2
2022-08-31T06:44:01.121Z,59516.6
2022-08-31T06:45:01.790Z,60213.9
2022-08-31T06:46:11.189Z,60911.1
2022-08-31T06:47:01.119Z,61504.0
2022-08-31T06:48:04.072Z,62096.9
2022-08-31T06:49:01.115Z,62689.7
2022-08-31T06:50:01.323Z,63176.4
2022-08-31T06:51:06.117Z,63663.1
2022-08-31T06:52:02.220Z,64031.1
2022-08-31T06:53:16.149Z,64399.2
2022-08-31T06:54:11.458Z,64767.3
2022-08-31T06:56:01.269Z,65000.9
2022-08-31T06:57:01.099Z,65234.6
2022-08-31T06:58:01.983Z,65334.7
2022-08-31T06:59:01.112Z,65434.9
2022-08-31T07:00:01.110Z,65535.0
2022-08-31T07:15:01.136Z,65535.0
2022-08-31T07:30:02.147Z,65535.0
2022-08-31T07:45:01.758Z,65535.0
2022-08-31T08:00:01.110Z,65535.0
2022-08-31T08:15:01.113Z,65535.0
2022-08-31T08:30:01.325Z,65535.0
2022-08-31T08:45:01.116Z,65535.0
2022-08-31T09:00:01.117Z,65535.0
2022-08-31T09:15:01.116Z,65532.5
2022-08-31T09:16:01.151Z,65529.9
2022-08-31T09:30:01.119Z,65532.5
2022-08-31T09:31:01.175Z,65535.0
2022-08-31T09:45:01.167Z,65535.0
2022-08-31T10:00:01.286Z,65535.0
2022-08-31T10:15:01.112Z,65535.0
2022-08-31T10:30:01.106Z,65535.0
2022-08-31T10:45:05.882Z,65535.0
2022-08-31T11:00:01.108Z,65535.0
2022-08-31T11:15:01.112Z,65535.0
2022-08-31T11:30:01.106Z,65535.0
2022-08-31T11:45:01.115Z,65535.0
2022-08-31T12:00:01.097Z,65535.0
2022-08-31T12:15:01.104Z,65535.0
2022-08-31T12:30:01.114Z,65535.0
2022-08-31T12:45:01.531Z,65535.0
2022-08-31T13:00:02.175Z,65535.0
2022-08-31T13:15:01.110Z,65535.0
2022-08-31T13:30:01.102Z,65535.0
2022-08-31T13:45:01.119Z,65535.0
2022-08-31T14:00:01.144Z,65535.0
2022-08-31T14:15:01.169Z,65535.0
2022-08-31T14:30:01.347Z,65535.0
2022-08-31T14:45:01.109Z,65535.0
2022-08-31T15:00:01.102Z,65535.0
2022-08-31T15:15:01.124Z,65535.0
2022-08-31T15:30:02.420Z,65232.1
2022-08-31T15:31:01.173Z,64929.1
2022-08-31T15:38:01.385Z,64783.9
2022-08-31T15:39:01.530Z,64638.7
2022-08-31T15:45:01.148Z,64638.7
2022-08-31T15:46:01.142Z,64941.7
2022-08-31T15:47:01.102Z,65244.6
2022-08-31T15:48:01.206Z,64559.9
2022-08-31T15:49:01.818Z,63875.1
2022-08-31T15:50:01.098Z,62911.1
2022-08-31T15:51:01.103Z,61947.1
2022-08-31T15:52:01.094Z,60983.1
2022-08-31T15:53:04.135Z,59622.1
2022-08-31T15:54:22.005Z,58261.1
2022-08-31T15:55:01.104Z,56811.6
2022-08-31T15:56:01.100Z,55362.1
2022-08-31T15:57:01.099Z,53912.5
2022-08-31T15:58:01.127Z,52422.9
2022-08-31T15:59:01.744Z,50933.2
2022-08-31T16:00:01.134Z,49043.3
2022-08-31T16:01:01.136Z,47153.5
2022-08-31T16:02:01.151Z,45263.6
2022-08-31T16:03:01.121Z,44024.3
2022-08-31T16:04:01.742Z,42785.1
2022-08-31T16:05:01.103Z,41787.4
2022-08-31T16:06:01.107Z,40789.7
2022-08-31T16:07:01.175Z,39792.1
2022-08-31T16:08:02.163Z,39268.0
2022-08-31T16:09:01.337Z,38743.9
2022-08-31T16:10:01.130Z,38179.1
2022-08-31T16:11:01.105Z,37614.2
2022-08-31T16:12:01.109Z,37049.3
2022-08-31T16:13:01.143Z,36407.5
2022-08-31T16:14:01.834Z,35765.6
2022-08-31T16:15:01.110Z,35557.3
2022-08-31T16:16:01.106Z,35348.9
2022-08-31T16:17:01.211Z,35140.6
2022-08-31T16:18:01.155Z,35009.7
2022-08-31T16:19:03.296Z,34878.9
2022-08-31T16:20:01.108Z,34734.9
2022-08-31T16:21:01.112Z,34590.9
2022-08-31T16:22:01.107Z,34446.9
2022-08-31T16:23:01.142Z,34363.9
2022-08-31T16:24:01.819Z,34280.9
2022-08-31T16:25:01.102Z,34149.8
2022-08-31T16:26:01.111Z,34018.7
2022-08-31T16:27:01.108Z,33887.7
2022-08-31T16:28:02.186Z,33847.5
2022-08-31T16:29:01.800Z,33807.4
2022-08-31T16:31:01.165Z,33723.2
2022-08-31T16:32:01.122Z,33639.0
2022-08-31T16:33:01.282Z,33484.7
2022-08-31T16:34:01.098Z,33287.1
2022-08-31T16:36:01.095Z,32802.5
2022-08-31T16:37:01.101Z,32585.5
2022-08-31T16:38:01.097Z,32283.5
2022-08-31T16:39:01.094Z,31989.1
2022-08-31T16:40:02.387Z,31661.2
2022-08-31T16:41:01.099Z,31365.5
2022-08-31T16:42:01.095Z,31069.7
2022-08-31T16:43:01.340Z,30745.1
2022-08-31T16:44:18.344Z,30446.6
2022-08-31T16:46:01.115Z,29763.7
2022-08-31T16:47:01.118Z,29427.7
2022-08-31T16:48:01.139Z,29121.1
2022-08-31T16:49:01.149Z,28814.5
2022-08-31T16:51:01.102Z,28263.7
2022-08-31T16:52:01.100Z,27988.3
2022-08-31T16:53:01.142Z,27759.9
2022-08-31T16:54:01.114Z,27531.6
2022-08-31T16:56:01.100Z,27064.4
2022-08-31T16:57:01.103Z,26830.8
2022-08-31T16:58:01.226Z,26593.3
2022-08-31T16:59:01.109Z,26355.9
2022-08-31T17:01:01.149Z,25906.7
2022-08-31T17:02:01.139Z,25682.1
2022-08-31T17:03:01.280Z,25453.6
2022-08-31T17:04:01.114Z,25225.1
2022-08-31T17:05:01.354Z,24997.7
2022-08-31T17:06:01.100Z,24770.2
2022-08-31T17:07:01.099Z,24542.7
2022-08-31T17:08:01.337Z,24311.9
2022-08-31T17:09:01.102Z,24081.1
2022-08-31T17:11:01.106Z,23620.5
2022-08-31T17:12:01.207Z,23390.1
2022-08-31T17:13:01.268Z,23147.9
2022-08-31T17:14:01.100Z,22905.7
2022-08-31T17:16:01.158Z,22295.9
2022-08-31T17:17:01.109Z,21990.9
2022-08-31T17:18:01.152Z,21654.7
2022-08-31T17:19:01.172Z,21318.4
2022-08-31T17:20:01.322Z,20960.5
2022-08-31T17:21:01.111Z,20602.5
2022-08-31T17:22:01.111Z,20244.6
2022-08-31T17:23:02.174Z,19889.1
2022-08-31T17:24:01.113Z,19533.7
2022-08-31T17:26:01.110Z,18821.1
2022-08-31T17:27:01.105Z,18464.9
2022-08-31T17:28:04.463Z,18113.8
2022-08-31T17:29:01.103Z,17762.7
2022-08-31T17:32:01.369Z,17177.7
2022-08-31T17:33:01.092Z,16831.3
2022-08-31T17:34:01.099Z,16560.8
2022-08-31T17:35:01.099Z,16243.8
2022-08-31T17:36:01.941Z,15986.4
2022-08-31T17:37:02.170Z,15729.0
2022-08-31T17:38:01.132Z,15433.3
2022-08-31T17:39:01.108Z,15176.5
2022-08-31T17:40:01.126Z,14889.3
2022-08-31T17:41:01.917Z,14641.3
2022-08-31T17:42:01.093Z,14393.2
2022-08-31T17:43:01.131Z,14096.7
2022-08-31T17:44:01.090Z,13839.6
2022-08-31T17:45:01.177Z,13531.5
2022-08-31T17:46:01.736Z,13263.1
2022-08-31T17:47:01.247Z,12994.7
2022-08-31T17:48:01.468Z,12729.0
2022-08-31T17:49:01.246Z,12463.3
2022-08-31T17:50:01.163Z,12192.2
2022-08-31T17:51:01.902Z,11921.1
2022-08-31T17:52:01.116Z,11650.1
2022-08-31T17:53:01.194Z,11364.9
2022-08-31T17:54:01.121Z,11079.8
2022-08-31T17:55:01.095Z,10772.8
2022-08-31T17:56:06.778Z,10465.8
2022-08-31T17:57:01.096Z,10158.8
2022-08-31T17:58:01.119Z,9848.8
2022-08-31T17:59:01.098Z,9538.8
2022-08-31T18:00:01.096Z,9229.5
2022-08-31T18:01:03.667Z,8920.1
2022-08-31T18:02:01.099Z,8610.8
2022-08-31T18:03:01.150Z,8303.4
2022-08-31T18:04:01.124Z,7996.0
2022-08-31T18:05:01.213Z,7692.6
2022-08-31T18:06:06.747Z,7389.2
2022-08-31T18:07:01.103Z,7085.8
2022-08-31T18:08:01.164Z,6788.4
2022-08-31T18:09:01.119Z,6491.0
2022-08-31T18:10:02.135Z,6201.5
2022-08-31T18:11:01.925Z,5911.9
2022-08-31T18:12:01.114Z,5622.4
2022-08-31T18:13:01.143Z,5343.4
2022-08-31T18:14:01.107Z,5064.4
2022-08-31T18:15:02.135Z,4798.6
2022-08-31T18:16:03.055Z,4532.8
2022-08-31T18:17:01.105Z,4267.0
2022-08-31T18:18:01.139Z,4017.9
2022-08-31T18:19:01.114Z,3768.7
2022-08-31T18:20:01.109Z,3537.9
2022-08-31T18:21:06.884Z,3307.1
2022-08-31T18:23:01.092Z,3050.4
2022-08-31T18:24:01.093Z,2840.0
2022-08-31T18:25:01.101Z,2607.8
2022-08-31T18:26:01.126Z,2420.0
2022-08-31T18:27:01.828Z,2232.2
2022-08-31T18:28:01.099Z,2026.5
2022-08-31T18:29:01.099Z,1861.7
2022-08-31T18:30:01.098Z,1682.2
2022-08-31T18:31:01.142Z,1539.9
2022-08-31T18:32:01.741Z,1397.5
2022-08-31T18:33:01.105Z,1243.6
2022-08-31T18:34:01.132Z,1122.2
2022-08-31T18:35:06.115Z,991.9
2022-08-31T18:36:02.135Z,891.0
2022-08-31T18:37:01.738Z,790.1
2022-08-31T18:38:01.098Z,708.5
2022-08-31T18:39:01.105Z,626.8
2022-08-31T18:40:03.333Z,562.1
2022-08-31T18:41:01.099Z,497.5
2022-08-31T18:42:01.747Z,432.8
2022-08-31T18:43:01.096Z,382.7
2022-08-31T18:44:01.096Z,332.5
2022-08-31T18:45:01.097Z,294.7
2022-08-31T18:46:01.101Z,256.8
2022-08-31T18:47:02.200Z,218.9
2022-08-31T18:48:23.654Z,191.0
2022-08-31T18:49:11.692Z,163.1
2022-08-31T18:50:01.107Z,143.1
2022-08-31T18:51:01.096Z,123.1
2022-08-31T18:52:08.528Z,103.1
2022-08-31T18:53:01.101Z,89.0
2022-08-31T18:54:02.145Z,74.9
2022-08-31T18:55:01.106Z,65.3
2022-08-31T18:56:01.099Z,55.6
2022-08-31T18:57:01.766Z,45.9
2022-08-31T18:58:01.099Z,39.4
2022-08-31T18:59:01.192Z,32.9
2022-08-31T19:00:02.133Z,28.5
2022-08-31T19:01:01.179Z,24.2
2022-08-31T19:02:02.862Z,19.9
2022-08-31T19:03:01.101Z,17.1
2022-08-31T19:04:01.134Z,14.3
2022-08-31T19:05:01.101Z,12.4
2022-08-31T19:06:01.104Z,10.5
2022-08-31T19:07:02.003Z,8.7
2022-08-31T19:08:01.107Z,7.5
2022-08-31T19:09:01.404Z,6.4
2022-08-31T19:10:01.109Z,5.6
2022-08-31T19:11:01.149Z,4.8
2022-08-31T19:12:01.404Z,4.0
2022-08-31T19:13:01.114Z,3.5
2022-08-31T19:14:01.157Z,2.9
2022-08-31T19:15:01.110Z,2.6
2022-08-31T19:16:03.728Z,2.3
2022-08-31T19:17:03.771Z,1.9
2022-08-31T19:18:01.108Z,1.7
2022-08-31T19:19:01.139Z,1.5
2022-08-31T19:20:03.540Z,1.3
2022-08-31T19:21:01.108Z,1.1
2022-08-31T19:22:01.830Z,0.9
2022-08-31T19:23:01.111Z,0.8
2022-08-31T19:24:01.152Z,0.7
2022-08-31T19:25:01.111Z,0.6
2022-08-31T19:26:01.111Z,0.5
2022-08-31T19:28:01.358Z,0.4
2022-08-31T19:29:01.153Z,0.3
2022-08-31T19:30:01.141Z,0.3
2022-08-31T19:31:01.197Z,0.2
2022-08-31T19:33:01.355Z,0.1
